createdAt,value
2023-02-27T00:00:53.140Z,1.58
2023-02-27T00:03:19.795Z,1.82
2023-02-27T00:05:46.670Z,2.19
2023-02-27T00:08:13.340Z,2.28
2023-02-27T00:10:40.528Z,2.37
2023-02-27T00:13:07.549Z,1.66
2023-02-27T00:15:34.706Z,1.89
2023-02-27T00:18:01.702Z,1.67
2023-02-27T00:20:28.858Z,1.22
2023-02-27T00:22:55.705Z,1.03
2023-02-27T00:25:22.357Z,0.53
2023-02-27T00:27:49.304Z,0.41
2023-02-27T00:30:16.659Z,0.69
2023-02-27T00:32:44.087Z,0.80
2023-02-27T00:35:12.538Z,1.14
2023-02-27T00:37:40.101Z,1.38
2023-02-27T00:40:07.950Z,1.22
2023-02-27T00:42:35.029Z,1.14
2023-02-27T00:45:02.133Z,1.86
2023-02-27T00:47:29.138Z,2.29
2023-02-27T00:49:56.033Z,2.21
2023-02-27T00:52:22.710Z,2.31
2023-02-27T00:54:49.624Z,2.25
2023-02-27T00:57:16.365Z,2.35
2023-02-27T00:59:43.323Z,1.66
2023-02-27T01:02:10.298Z,2.05
2023-02-27T01:04:37.298Z,1.84
2023-02-27T01:07:04.192Z,2.28
2023-02-27T01:09:30.863Z,1.94
2023-02-27T01:11:57.822Z,2.41
2023-02-27T01:14:24.700Z,2.20
2023-02-27T01:16:51.515Z,1.82
2023-02-27T01:19:18.722Z,1.86
2023-02-27T01:21:46.035Z,1.46
2023-02-27T01:24:13.354Z,1.33
2023-02-27T01:26:40.321Z,0.95
2023-02-27T01:29:07.273Z,1.13
2023-02-27T01:31:34.674Z,1.57
2023-02-27T01:34:01.653Z,1.22
2023-02-27T01:36:28.605Z,1.42
2023-02-27T01:38:55.612Z,1.18
2023-02-27T01:41:22.511Z,1.49
2023-02-27T01:43:56.859Z,1.76
2023-02-27T01:46:24.278Z,1.27
2023-02-27T01:48:54.591Z,1.82
2023-02-27T01:51:22.267Z,0.80
2023-02-27T01:53:51.342Z,1.58
2023-02-27T01:56:26.548Z,1.43
2023-02-27T01:58:57.047Z,1.61
2023-02-27T02:01:24.749Z,1.21
2023-02-27T02:04:28.672Z,1.43
2023-02-27T02:07:16.195Z,1.05
2023-02-27T02:09:49.667Z,1.05
2023-02-27T02:12:17.534Z,1.22
2023-02-27T02:14:44.793Z,1.23
2023-02-27T02:17:48.721Z,1.27
2023-02-27T02:20:33.836Z,1.32
2023-02-27T02:23:57.748Z,1.21
2023-02-27T02:26:36.495Z,1.36
2023-02-27T02:29:30.997Z,1.25
2023-02-27T02:32:03.920Z,1.24
2023-02-27T02:34:43.017Z,1.40
2023-02-27T02:37:40.879Z,1.13
2023-02-27T02:40:17.598Z,1.01
2023-02-27T02:43:07.237Z,1.06
2023-02-27T02:45:44.791Z,1.05
2023-02-27T02:48:23.551Z,0.96
2023-02-27T02:51:20.419Z,1.29
2023-02-27T02:54:02.734Z,1.08
2023-02-27T02:56:52.437Z,1.14
2023-02-27T02:59:26.555Z,1.01
2023-02-27T03:02:15.046Z,2.00
2023-02-27T03:04:59.896Z,1.53
2023-02-27T03:07:49.562Z,1.27
2023-02-27T03:10:21.274Z,1.55
2023-02-27T03:12:59.576Z,1.64
2023-02-27T03:15:31.315Z,1.21
2023-02-27T03:18:06.744Z,1.15
2023-02-27T03:20:40.277Z,1.65
2023-02-27T03:23:16.413Z,2.07
2023-02-27T03:25:46.473Z,1.48
2023-02-27T03:28:18.781Z,1.84
2023-02-27T03:30:50.311Z,1.96
2023-02-27T03:33:32.557Z,2.02
2023-02-27T03:36:02.228Z,1.44
2023-02-27T03:38:45.363Z,1.54
2023-02-27T03:41:33.367Z,0.98
2023-02-27T03:44:06.012Z,0.85
2023-02-27T03:46:32.922Z,0.83
2023-02-27T03:48:59.876Z,1.13
2023-02-27T03:51:31.735Z,0.74
2023-02-27T03:54:13.823Z,0.95
2023-02-27T03:56:44.909Z,1.67
2023-02-27T03:59:11.857Z,1.69
2023-02-27T04:01:39.084Z,1.75
2023-02-27T04:04:13.475Z,1.76
2023-02-27T04:07:02.844Z,1.99
2023-02-27T04:09:40.577Z,1.54
2023-02-27T04:12:07.390Z,1.22
2023-02-27T04:14:36.828Z,1.33
2023-02-27T04:17:30.144Z,1.38
2023-02-27T04:20:17.262Z,1.90
2023-02-27T04:22:55.534Z,2.10
2023-02-27T04:25:30.346Z,1.88
2023-02-27T04:28:09.175Z,1.82
2023-02-27T04:30:44.893Z,1.95
2023-02-27T04:33:38.141Z,1.19
2023-02-27T04:36:24.616Z,1.42
2023-02-27T04:39:10.432Z,1.25
2023-02-27T04:42:03.809Z,1.16
2023-02-27T04:44:31.629Z,1.51
2023-02-27T04:47:00.110Z,1.06
2023-02-27T04:49:29.664Z,0.84
2023-02-27T04:52:21.893Z,0.83
2023-02-27T04:54:54.913Z,0.96
2023-02-27T04:57:30.345Z,0.75
2023-02-27T04:59:59.242Z,1.08
2023-02-27T05:02:29.753Z,0.86
2023-02-27T05:04:59.217Z,0.91
2023-02-27T05:07:31.357Z,0.68
2023-02-27T05:10:07.288Z,0.67
2023-02-27T05:13:08.184Z,1.59
2023-02-27T05:15:45.997Z,1.44
2023-02-27T05:18:16.643Z,1.04
2023-02-27T05:20:54.494Z,1.19
2023-02-27T05:23:43.618Z,0.76
2023-02-27T05:26:19.721Z,1.35
2023-02-27T05:29:03.461Z,1.62
2023-02-27T05:31:44.977Z,1.31
2023-02-27T05:34:22.760Z,1.23
2023-02-27T05:36:58.925Z,1.29
2023-02-27T05:39:30.219Z,1.69
2023-02-27T05:42:01.520Z,1.39
2023-02-27T05:44:34.453Z,1.34
2023-02-27T05:47:06.266Z,1.36
2023-02-27T05:49:39.742Z,1.71
2023-02-27T05:52:11.056Z,1.97
2023-02-27T05:55:02.448Z,2.14
2023-02-27T05:57:52.115Z,2.04
2023-02-27T06:00:27.185Z,1.96
2023-02-27T06:02:54.425Z,1.95
2023-02-27T06:05:21.314Z,1.90
2023-02-27T06:07:47.981Z,2.01
2023-02-27T06:10:19.564Z,1.93
2023-02-27T06:12:46.533Z,2.30
2023-02-27T06:15:13.849Z,2.23
2023-02-27T06:17:41.003Z,2.04
2023-02-27T06:20:08.576Z,2.15
2023-02-27T06:22:35.761Z,1.97
2023-02-27T06:25:03.744Z,2.28
2023-02-27T06:27:30.657Z,2.14
2023-02-27T06:29:57.854Z,2.50
2023-02-27T06:32:25.917Z,2.58
2023-02-27T06:34:53.554Z,1.92
2023-02-27T06:37:21.888Z,2.19
2023-02-27T06:39:48.785Z,2.37
2023-02-27T06:42:15.631Z,2.13
2023-02-27T06:44:42.520Z,2.51
2023-02-27T06:47:09.263Z,2.02
2023-02-27T06:49:36.423Z,2.20
2023-02-27T06:52:03.254Z,2.27
2023-02-27T06:54:29.963Z,2.29
2023-02-27T06:56:56.845Z,2.94
2023-02-27T06:59:23.507Z,2.53
2023-02-27T07:01:50.386Z,2.75
2023-02-27T07:04:17.151Z,2.39
2023-02-27T07:07:34.078Z,2.47
2023-02-27T07:09:31.681Z,2.61
2023-02-27T07:11:58.563Z,2.56
2023-02-27T07:14:25.883Z,2.71
2023-02-27T07:16:55.577Z,2.66
2023-02-27T07:19:23.673Z,2.64
2023-02-27T07:21:50.916Z,2.32
2023-02-27T07:24:17.973Z,2.41
2023-02-27T07:26:45.206Z,2.70
2023-02-27T07:29:12.222Z,2.74
2023-02-27T07:31:39.158Z,2.64
2023-02-27T07:34:06.068Z,2.69
2023-02-27T07:36:32.963Z,2.89
2023-02-27T07:38:59.842Z,3.10
2023-02-27T07:41:30.731Z,2.84
2023-02-27T07:43:58.197Z,2.15
2023-02-27T07:46:27.699Z,2.13
2023-02-27T07:48:55.240Z,2.41
2023-02-27T07:51:22.570Z,2.54
2023-02-27T07:53:49.434Z,2.87
2023-02-27T07:56:16.168Z,2.60
2023-02-27T07:58:43.021Z,2.60
2023-02-27T08:01:09.662Z,2.42
2023-02-27T08:03:36.548Z,2.38
2023-02-27T08:06:03.245Z,2.03
2023-02-27T08:08:30.139Z,1.98
2023-02-27T08:10:56.842Z,2.69
2023-02-27T08:13:42.209Z,2.53
2023-02-27T08:16:10.663Z,2.73
2023-02-27T08:18:37.714Z,2.62
2023-02-27T08:21:07.528Z,3.17
2023-02-27T08:23:34.675Z,2.74
2023-02-27T08:26:02.650Z,2.87
2023-02-27T08:28:29.784Z,2.88
2023-02-27T08:30:56.977Z,3.34
2023-02-27T08:33:24.526Z,3.48
2023-02-27T08:35:51.426Z,3.29
2023-02-27T08:38:18.098Z,3.14
2023-02-27T08:40:44.986Z,3.19
2023-02-27T08:43:11.655Z,3.06
2023-02-27T08:45:38.606Z,2.75
2023-02-27T08:48:05.914Z,2.93
2023-02-27T08:50:32.832Z,3.49
2023-02-27T08:53:00.631Z,3.00
2023-02-27T08:55:27.514Z,3.29
2023-02-27T08:57:54.415Z,3.25
2023-02-27T09:00:21.554Z,2.72
2023-02-27T09:02:48.504Z,3.41
2023-02-27T09:05:15.483Z,3.90
2023-02-27T09:07:42.512Z,4.21
2023-02-27T09:10:10.003Z,4.09
2023-02-27T09:12:37.708Z,4.38
2023-02-27T09:15:12.689Z,4.47
2023-02-27T09:18:10.302Z,4.60
2023-02-27T09:20:41.692Z,4.60
2023-02-27T09:23:08.569Z,4.62
2023-02-27T09:25:35.475Z,4.73
2023-02-27T09:28:02.404Z,4.47
2023-02-27T09:30:29.940Z,4.94
2023-02-27T09:32:57.115Z,4.49
2023-02-27T09:35:24.062Z,4.74
2023-02-27T09:37:51.000Z,4.82
2023-02-27T09:40:23.720Z,5.40
2023-02-27T09:42:52.402Z,5.47
2023-02-27T09:45:24.418Z,5.54
2023-02-27T09:48:06.724Z,5.01
2023-02-27T09:50:40.710Z,5.06
2023-02-27T09:53:14.409Z,5.41
2023-02-27T09:55:42.667Z,5.23
2023-02-27T09:58:32.346Z,5.60
2023-02-27T10:01:20.507Z,5.76
2023-02-27T10:04:18.643Z,6.33
2023-02-27T10:06:52.791Z,6.21
2023-02-27T10:09:31.572Z,5.40
2023-02-27T10:12:17.005Z,4.53
2023-02-27T10:14:47.849Z,5.15
2023-02-27T10:17:34.849Z,5.57
2023-02-27T10:20:07.339Z,5.84
2023-02-27T10:22:38.660Z,6.19
2023-02-27T10:25:29.914Z,6.87
2023-02-27T10:28:04.018Z,6.66
2023-02-27T10:30:34.287Z,6.30
2023-02-27T10:33:18.086Z,6.87
2023-02-27T10:35:45.807Z,7.30
2023-02-27T10:38:13.574Z,6.36
2023-02-27T10:40:41.698Z,5.84
2023-02-27T10:43:08.971Z,5.44
2023-02-27T10:45:37.469Z,5.95
2023-02-27T10:48:05.988Z,6.38
2023-02-27T10:50:40.551Z,7.11
2023-02-27T10:53:17.883Z,7.45
2023-02-27T10:55:45.569Z,7.61
2023-02-27T10:58:23.014Z,7.29
2023-02-27T11:00:54.292Z,7.09
2023-02-27T11:03:24.627Z,6.15
2023-02-27T11:06:00.061Z,7.57
2023-02-27T11:08:30.122Z,8.17
2023-02-27T11:10:59.004Z,8.19
2023-02-27T11:13:30.115Z,7.55
2023-02-27T11:16:16.009Z,7.54
2023-02-27T11:18:48.682Z,7.08
2023-02-27T11:21:22.926Z,6.97
2023-02-27T11:23:56.903Z,7.86
2023-02-27T11:26:33.185Z,8.36
2023-02-27T11:29:15.029Z,8.28
2023-02-27T11:31:47.012Z,8.76
2023-02-27T11:34:32.165Z,7.80
2023-02-27T11:37:06.745Z,7.48
2023-02-27T11:39:56.048Z,7.76
2023-02-27T11:42:34.646Z,7.52
2023-02-27T11:46:04.920Z,6.72
2023-02-27T11:48:47.316Z,7.25
2023-02-27T11:51:23.225Z,8.04
2023-02-27T11:54:38.209Z,8.10
2023-02-27T11:57:11.228Z,8.06
2023-02-27T11:59:51.728Z,8.48
2023-02-27T12:02:25.759Z,7.25
2023-02-27T12:05:07.124Z,6.37
2023-02-27T12:07:41.164Z,7.00
2023-02-27T12:10:11.300Z,7.66
2023-02-27T12:12:40.736Z,7.49
2023-02-27T12:15:32.991Z,7.85
2023-02-27T12:23:47.019Z,7.10
2023-02-27T12:26:25.247Z,6.20
2023-02-27T12:29:01.756Z,6.42
2023-02-27T12:31:29.309Z,6.90
2023-02-27T12:34:29.612Z,7.69
2023-02-27T12:39:35.125Z,7.22
2023-02-27T12:42:25.134Z,6.92
2023-02-27T12:45:00.815Z,7.38
2023-02-27T12:47:39.997Z,6.27
2023-02-27T12:50:11.196Z,6.13
2023-02-27T12:52:44.917Z,6.55
2023-02-27T12:55:21.200Z,5.59
2023-02-27T12:58:28.388Z,5.85
2023-02-27T13:01:00.099Z,5.83
2023-02-27T13:03:40.151Z,5.43
2023-02-27T13:06:26.550Z,5.79
2023-02-27T13:09:13.961Z,4.68
2023-02-27T13:11:59.075Z,4.89
2023-02-27T13:14:50.538Z,4.80
2023-02-27T13:17:37.093Z,4.76
2023-02-27T13:20:22.487Z,4.72
2023-02-27T13:23:11.413Z,5.08
2023-02-27T13:25:40.060Z,5.01
2023-02-27T13:28:09.305Z,4.53
2023-02-27T13:30:39.709Z,4.65
2023-02-27T13:33:34.770Z,4.58
2023-02-27T13:36:30.066Z,4.15
2023-02-27T13:38:57.110Z,4.86
2023-02-27T13:41:23.886Z,5.38
2023-02-27T13:43:53.339Z,5.69
2023-02-27T13:46:34.456Z,5.19
2023-02-27T13:49:20.042Z,4.70
2023-02-27T13:51:56.843Z,4.69
2023-02-27T13:54:30.275Z,4.70
2023-02-27T13:56:59.792Z,4.54
2023-02-27T13:59:29.282Z,5.02
2023-02-27T14:02:12.895Z,4.99
2023-02-27T14:05:21.088Z,4.71
2023-02-27T14:10:58.628Z,5.73
2023-02-27T14:18:58.335Z,4.65
2023-02-27T14:21:50.165Z,5.55
2023-02-27T14:24:19.215Z,5.58
2023-02-27T14:26:46.989Z,5.10
2023-02-27T14:29:44.335Z,4.21
2023-02-27T14:32:33.276Z,4.62
2023-02-27T14:35:01.232Z,4.22
2023-02-27T14:40:30.007Z,4.62
2023-02-27T14:43:28.315Z,4.66
2023-02-27T14:45:55.877Z,4.51
2023-02-27T14:48:28.307Z,5.41
2023-02-27T14:50:58.135Z,5.25
2023-02-27T14:53:27.182Z,5.55
2023-02-27T14:58:29.397Z,4.48
2023-02-27T15:03:48.740Z,4.52
2023-02-27T15:06:22.273Z,4.84
2023-02-27T15:08:51.473Z,5.21
2023-02-27T15:11:21.673Z,4.84
2023-02-27T15:13:53.677Z,4.69
2023-02-27T15:16:23.528Z,4.31
2023-02-27T15:18:58.340Z,4.63
2023-02-27T15:21:27.042Z,4.72
2023-02-27T15:23:56.103Z,5.34
2023-02-27T15:26:23.310Z,5.04
2023-02-27T15:28:50.669Z,4.91
2023-02-27T15:31:28.790Z,4.60
2023-02-27T15:33:56.569Z,4.70
2023-02-27T15:36:26.754Z,3.93
2023-02-27T15:39:16.958Z,4.44
2023-02-27T15:41:55.831Z,4.05
2023-02-27T15:44:41.640Z,4.15
2023-02-27T15:47:11.333Z,4.40
2023-02-27T15:49:38.669Z,4.41
2023-02-27T15:52:14.061Z,4.69
2023-02-27T15:54:48.684Z,4.79
2023-02-27T15:57:17.770Z,4.82
2023-02-27T15:59:44.669Z,4.23
2023-02-27T16:02:22.024Z,4.65
2023-02-27T16:04:48.771Z,4.23
2023-02-27T16:07:20.455Z,4.28
2023-02-27T16:09:51.265Z,4.26
2023-02-27T16:12:27.874Z,4.03
2023-02-27T16:15:18.188Z,3.64
2023-02-27T16:17:58.674Z,3.84
2023-02-27T16:20:39.435Z,4.06
2023-02-27T16:23:20.974Z,4.18
2023-02-27T16:26:00.921Z,4.40
2023-02-27T16:28:33.911Z,4.10
2023-02-27T16:31:01.024Z,3.65
2023-02-27T16:33:31.901Z,3.71
2023-02-27T16:36:16.997Z,3.76
2023-02-27T16:38:44.508Z,4.07
2023-02-27T16:41:12.789Z,4.42
2023-02-27T16:43:39.753Z,4.50
2023-02-27T16:46:08.155Z,4.11
2023-02-27T16:48:35.665Z,4.17
2023-02-27T16:51:03.942Z,4.07
2023-02-27T16:53:30.768Z,3.73
2023-02-27T16:55:58.289Z,3.50
2023-02-27T16:58:26.005Z,3.53
2023-02-27T17:00:52.904Z,3.60
2023-02-27T17:03:19.952Z,3.47
2023-02-27T17:05:47.707Z,3.49
2023-02-27T17:08:14.578Z,4.05
2023-02-27T17:10:41.507Z,3.70
2023-02-27T17:13:08.360Z,3.14
2023-02-27T17:15:35.038Z,3.48
2023-02-27T17:18:01.918Z,3.83
2023-02-27T17:20:30.321Z,4.04
2023-02-27T17:22:57.853Z,4.27
2023-02-27T17:25:25.640Z,4.07
2023-02-27T17:27:52.530Z,4.03
2023-02-27T17:30:19.495Z,3.91
2023-02-27T17:32:46.368Z,3.85
2023-02-27T17:35:13.216Z,3.25
2023-02-27T17:37:39.918Z,3.52
2023-02-27T17:40:08.422Z,3.43
2023-02-27T17:42:39.400Z,3.58
2023-02-27T17:45:07.626Z,3.52
2023-02-27T17:47:35.135Z,3.57
2023-02-27T17:50:02.782Z,3.75
2023-02-27T17:52:29.883Z,3.54
2023-02-27T17:54:57.006Z,3.13
2023-02-27T17:57:23.856Z,3.48
2023-02-27T17:59:51.030Z,3.41
2023-02-27T18:02:17.957Z,3.49
2023-02-27T18:04:44.884Z,3.04
2023-02-27T18:07:11.749Z,3.38
2023-02-27T18:09:38.462Z,3.36
2023-02-27T18:12:05.585Z,3.29
2023-02-27T18:14:32.599Z,3.39
2023-02-27T18:16:59.886Z,4.05
2023-02-27T18:19:32.334Z,4.03
2023-02-27T18:21:59.534Z,4.11
2023-02-27T18:24:26.392Z,3.76
2023-02-27T18:26:53.048Z,3.76
2023-02-27T18:29:19.916Z,4.00
2023-02-27T18:31:50.355Z,4.38
2023-02-27T18:34:17.269Z,4.00
2023-02-27T18:36:44.156Z,4.69
2023-02-27T18:39:11.536Z,5.32
2023-02-27T18:41:38.661Z,4.90
2023-02-27T18:44:06.506Z,4.94
2023-02-27T18:46:33.954Z,4.87
2023-02-27T18:49:01.411Z,4.91
2023-02-27T18:51:28.395Z,5.11
2023-02-27T18:53:55.479Z,5.53
2023-02-27T18:56:24.916Z,5.21
2023-02-27T18:58:52.574Z,5.31
2023-02-27T19:01:22.533Z,4.90
2023-02-27T19:03:50.531Z,4.72
2023-02-27T19:06:17.691Z,4.61
2023-02-27T19:08:44.756Z,4.48
2023-02-27T19:11:11.704Z,4.74
2023-02-27T19:13:38.551Z,4.42
2023-02-27T19:16:05.401Z,4.64
2023-02-27T19:18:32.348Z,4.96
2023-02-27T19:21:05.405Z,4.95
2023-02-27T19:23:32.423Z,5.35
2023-02-27T19:26:00.524Z,4.76
2023-02-27T19:28:27.921Z,4.65
2023-02-27T19:30:55.010Z,4.56
2023-02-27T19:33:21.911Z,4.20
2023-02-27T19:35:48.858Z,4.30
2023-02-27T19:38:15.912Z,4.51
2023-02-27T19:40:42.787Z,4.60
2023-02-27T19:43:09.670Z,4.81
2023-02-27T19:45:40.848Z,5.02
2023-02-27T19:48:08.455Z,4.90
2023-02-27T19:50:35.378Z,4.61
2023-02-27T19:53:02.428Z,4.17
2023-02-27T19:55:29.327Z,4.46
2023-02-27T19:57:56.217Z,4.56
2023-02-27T20:00:23.535Z,4.98
2023-02-27T20:02:50.433Z,4.60
2023-02-27T20:05:17.452Z,4.48
2023-02-27T20:07:46.492Z,4.14
2023-02-27T20:10:13.424Z,4.11
2023-02-27T20:12:40.530Z,4.27
2023-02-27T20:15:11.590Z,4.38
2023-02-27T20:17:39.835Z,4.38
2023-02-27T20:20:07.316Z,4.37
2023-02-27T20:22:34.197Z,4.26
2023-02-27T20:25:01.259Z,4.16
2023-02-27T20:27:28.521Z,4.60
2023-02-27T20:29:56.398Z,4.57
2023-02-27T20:32:24.723Z,4.42
2023-02-27T20:34:53.680Z,4.29
2023-02-27T20:37:22.574Z,4.56
2023-02-27T20:39:49.956Z,4.71
2023-02-27T20:42:17.119Z,4.62
2023-02-27T20:44:44.050Z,4.63
2023-02-27T20:47:11.186Z,4.86
2023-02-27T20:49:38.721Z,4.57
2023-02-27T20:52:05.743Z,4.39
2023-02-27T20:54:32.893Z,4.39
2023-02-27T20:56:59.783Z,4.45
2023-02-27T20:59:26.887Z,4.48
2023-02-27T21:01:54.794Z,4.31
2023-02-27T21:04:42.649Z,4.34
2023-02-27T21:07:19.079Z,4.65
2023-02-27T21:09:45.997Z,5.03
2023-02-27T21:12:13.101Z,4.67
2023-02-27T21:14:40.017Z,4.52
2023-02-27T21:17:07.232Z,4.80
2023-02-27T21:19:34.097Z,4.59
2023-02-27T21:22:01.076Z,4.60
2023-02-27T21:24:28.032Z,4.62
2023-02-27T21:26:54.902Z,4.53
2023-02-27T21:29:21.866Z,4.31
2023-02-27T21:31:49.754Z,3.82
2023-02-27T21:34:20.324Z,4.40
2023-02-27T21:36:47.546Z,4.04
2023-02-27T21:39:17.073Z,4.30
2023-02-27T21:41:44.491Z,4.26
2023-02-27T21:44:14.160Z,4.44
2023-02-27T21:46:41.281Z,4.31
2023-02-27T21:49:08.224Z,5.00
2023-02-27T21:51:40.779Z,5.03
2023-02-27T21:54:11.342Z,4.52
2023-02-27T21:56:39.026Z,4.11
2023-02-27T21:59:06.237Z,4.17
2023-02-27T22:01:33.481Z,3.60
2023-02-27T22:04:02.026Z,3.46
2023-02-27T22:06:32.324Z,3.69
2023-02-27T22:09:01.832Z,3.47
2023-02-27T22:11:29.556Z,2.67
2023-02-27T22:13:56.907Z,3.56
2023-02-27T22:16:24.109Z,2.73
2023-02-27T22:18:51.932Z,2.78
2023-02-27T22:21:22.770Z,2.74
2023-02-27T22:23:50.284Z,2.60
2023-02-27T22:26:24.339Z,2.58
2023-02-27T22:28:52.237Z,2.53
2023-02-27T22:31:21.975Z,2.59
2023-02-27T22:33:51.299Z,2.51
2023-02-27T22:36:23.426Z,2.23
2023-02-27T22:38:50.497Z,1.99
2023-02-27T22:41:19.803Z,2.16
2023-02-27T22:43:46.895Z,2.27
2023-02-27T22:46:20.410Z,2.26
2023-02-27T22:48:47.309Z,2.28
2023-02-27T22:51:15.039Z,2.46
2023-02-27T22:53:45.100Z,2.27
2023-02-27T22:56:14.161Z,2.19
2023-02-27T22:58:42.390Z,2.08
2023-02-27T23:01:18.970Z,2.14
2023-02-27T23:03:48.092Z,2.19
2023-02-27T23:06:18.325Z,2.02
2023-02-27T23:08:45.886Z,2.23
2023-02-27T23:11:14.046Z,1.96
2023-02-27T23:13:41.427Z,1.95
2023-02-27T23:16:11.887Z,1.61
2023-02-27T23:18:40.144Z,1.57
2023-02-27T23:21:07.682Z,1.91
2023-02-27T23:23:34.829Z,1.49
2023-02-27T23:26:02.500Z,0.95
2023-02-27T23:28:30.145Z,1.48
2023-02-27T23:30:57.079Z,1.21
2023-02-27T23:33:23.977Z,1.42
2023-02-27T23:35:52.014Z,0.70
2023-02-27T23:38:19.254Z,0.68
2023-02-27T23:40:46.186Z,0.82
2023-02-27T23:43:13.126Z,0.78
2023-02-27T23:45:40.350Z,0.95
2023-02-27T23:48:07.460Z,0.84
2023-02-27T23:50:39.378Z,0.79
2023-02-27T23:53:07.519Z,0.57
2023-02-27T23:55:36.205Z,0.31
2023-02-27T23:58:05.856Z,0.34
